sensor_id;sensor_type;location;lat;lon;timestamp;P1;durP1;ratioP1;P2;durP2;ratioP2
31728;SDS011;18309;43.658;1.312;2022-09-21T00:02:13;5.68;;;1.02;;
31728;SDS011;18309;43.658;1.312;2022-09-21T00:04:39;6.45;;;0.88;;
31728;SDS011;18309;43.658;1.312;2022-09-21T00:07:04;11.35;;;1.30;;
31728;SDS011;18309;43.658;1.312;2022-09-21T00:09:30;7.70;;;0.98;;
31728;SDS011;18309;43.658;1.312;2022-09-21T00:11:55;5.18;;;0.95;;
31728;SDS011;18309;43.658;1.312;2022-09-21T00:14:21;8.57;;;1.10;;
31728;SDS011;18309;43.658;1.312;2022-09-21T00:16:47;9.35;;;1.20;;
31728;SDS011;18309;43.658;1.312;2022-09-21T00:19:13;5.30;;;1.35;;
31728;SDS011;18309;43.658;1.312;2022-09-21T00:21:40;5.45;;;0.93;;
31728;SDS011;18309;43.658;1.312;2022-09-21T00:24:06;9.48;;;1.00;;
31728;SDS011;18309;43.658;1.312;2022-09-21T00:26:32;6.38;;;1.23;;
31728;SDS011;18309;43.658;1.312;2022-09-21T00:28:59;3.30;;;1.17;;
31728;SDS011;18309;43.658;1.312;2022-09-21T00:31:27;5.80;;;1.05;;
31728;SDS011;18309;43.658;1.312;2022-09-21T00:33:55;10.30;;;1.30;;
31728;SDS011;18309;43.658;1.312;2022-09-21T00:36:23;6.47;;;1.02;;
31728;SDS011;18309;43.658;1.312;2022-09-21T00:38:51;8.68;;;0.70;;
31728;SDS011;18309;43.658;1.312;2022-09-21T00:41:22;7.78;;;1.15;;
31728;SDS011;18309;43.658;1.312;2022-09-21T00:46:42;5.70;;;1.17;;
31728;SDS011;18309;43.658;1.312;2022-09-21T00:49:10;6.07;;;0.98;;
31728;SDS011;18309;43.658;1.312;2022-09-21T00:51:37;8.73;;;1.33;;
31728;SDS011;18309;43.658;1.312;2022-09-21T00:54:04;8.38;;;1.20;;
31728;SDS011;18309;43.658;1.312;2022-09-21T00:56:36;6.55;;;1.35;;
31728;SDS011;18309;43.658;1.312;2022-09-21T00:59:02;10.73;;;1.35;;
31728;SDS011;18309;43.658;1.312;2022-09-21T01:01:29;6.13;;;1.05;;
31728;SDS011;18309;43.658;1.312;2022-09-21T01:03:55;9.60;;;0.93;;
31728;SDS011;18309;43.658;1.312;2022-09-21T01:06:22;7.18;;;0.82;;
31728;SDS011;18309;43.658;1.312;2022-09-21T01:08:52;11.05;;;1.73;;
31728;SDS011;18309;43.658;1.312;2022-09-21T01:30:23;9.60;;;1.10;;
31728;SDS011;18309;43.658;1.312;2022-09-21T01:33:04;7.15;;;1.10;;
31728;SDS011;18309;43.658;1.312;2022-09-21T01:35:36;9.43;;;1.00;;
31728;SDS011;18309;43.658;1.312;2022-09-21T01:38:08;8.45;;;1.52;;
31728;SDS011;18309;43.658;1.312;2022-09-21T01:40:44;4.97;;;1.30;;
31728;SDS011;18309;43.658;1.312;2022-09-21T01:43:14;4.60;;;1.25;;
31728;SDS011;18309;43.658;1.312;2022-09-21T01:45:49;5.20;;;1.25;;
31728;SDS011;18309;43.658;1.312;2022-09-21T01:48:18;8.90;;;1.17;;
31728;SDS011;18309;43.658;1.312;2022-09-21T01:50:49;5.05;;;1.08;;
31728;SDS011;18309;43.658;1.312;2022-09-21T01:53:33;8.30;;;1.15;;
31728;SDS011;18309;43.658;1.312;2022-09-21T01:56:06;10.10;;;1.27;;
31728;SDS011;18309;43.658;1.312;2022-09-21T01:58:48;7.93;;;1.08;;
31728;SDS011;18309;43.658;1.312;2022-09-21T02:01:18;5.45;;;1.30;;
31728;SDS011;18309;43.658;1.312;2022-09-21T02:04:21;9.20;;;1.83;;
31728;SDS011;18309;43.658;1.312;2022-09-21T02:06:41;5.70;;;0.98;;
31728;SDS011;18309;43.658;1.312;2022-09-21T02:09:10;7.32;;;1.50;;
31728;SDS011;18309;43.658;1.312;2022-09-21T02:11:36;7.55;;;1.08;;
31728;SDS011;18309;43.658;1.312;2022-09-21T02:14:02;10.38;;;2.15;;
31728;SDS011;18309;43.658;1.312;2022-09-21T02:16:36;6.88;;;1.40;;
31728;SDS011;18309;43.658;1.312;2022-09-21T02:19:24;8.57;;;1.35;;
31728;SDS011;18309;43.658;1.312;2022-09-21T02:22:10;9.13;;;1.20;;
31728;SDS011;18309;43.658;1.312;2022-09-21T02:27:50;7.45;;;1.65;;
31728;SDS011;18309;43.658;1.312;2022-09-21T02:30:26;7.10;;;1.25;;
31728;SDS011;18309;43.658;1.312;2022-09-21T02:41:03;6.05;;;1.10;;
31728;SDS011;18309;43.658;1.312;2022-09-21T02:43:41;6.93;;;1.50;;
31728;SDS011;18309;43.658;1.312;2022-09-21T02:46:27;7.93;;;1.13;;
31728;SDS011;18309;43.658;1.312;2022-09-21T02:48:59;8.20;;;1.23;;
31728;SDS011;18309;43.658;1.312;2022-09-21T02:51:37;5.07;;;1.05;;
31728;SDS011;18309;43.658;1.312;2022-09-21T02:54:07;7.25;;;1.27;;
31728;SDS011;18309;43.658;1.312;2022-09-21T02:56:38;5.15;;;1.40;;
31728;SDS011;18309;43.658;1.312;2022-09-21T02:59:05;7.93;;;1.88;;
31728;SDS011;18309;43.658;1.312;2022-09-21T03:01:32;10.18;;;1.85;;
31728;SDS011;18309;43.658;1.312;2022-09-21T03:03:59;9.35;;;1.63;;
31728;SDS011;18309;43.658;1.312;2022-09-21T03:06:26;6.43;;;1.45;;
31728;SDS011;18309;43.658;1.312;2022-09-21T03:08:52;8.18;;;1.02;;
31728;SDS011;18309;43.658;1.312;2022-09-21T03:11:18;10.95;;;1.45;;
31728;SDS011;18309;43.658;1.312;2022-09-21T03:13:44;9.77;;;1.55;;
31728;SDS011;18309;43.658;1.312;2022-09-21T03:16:10;8.80;;;1.27;;
31728;SDS011;18309;43.658;1.312;2022-09-21T03:18:36;7.47;;;1.20;;
31728;SDS011;18309;43.658;1.312;2022-09-21T03:21:04;7.93;;;1.10;;
31728;SDS011;18309;43.658;1.312;2022-09-21T03:23:30;9.70;;;1.30;;
31728;SDS011;18309;43.658;1.312;2022-09-21T03:25:56;4.47;;;1.10;;
31728;SDS011;18309;43.658;1.312;2022-09-21T03:28:22;11.68;;;1.27;;
31728;SDS011;18309;43.658;1.312;2022-09-21T03:30:48;11.18;;;1.83;;
31728;SDS011;18309;43.658;1.312;2022-09-21T03:33:15;8.02;;;1.27;;
31728;SDS011;18309;43.658;1.312;2022-09-21T03:35:43;5.75;;;1.30;;
31728;SDS011;18309;43.658;1.312;2022-09-21T03:38:09;7.78;;;1.17;;
31728;SDS011;18309;43.658;1.312;2022-09-21T03:40:35;5.70;;;1.20;;
31728;SDS011;18309;43.658;1.312;2022-09-21T03:43:01;9.40;;;1.55;;
31728;SDS011;18309;43.658;1.312;2022-09-21T03:45:27;6.32;;;1.27;;
31728;SDS011;18309;43.658;1.312;2022-09-21T03:47:59;10.15;;;1.42;;
31728;SDS011;18309;43.658;1.312;2022-09-21T03:50:25;9.93;;;1.27;;
31728;SDS011;18309;43.658;1.312;2022-09-21T03:52:52;9.57;;;1.20;;
31728;SDS011;18309;43.658;1.312;2022-09-21T03:55:19;9.20;;;1.30;;
31728;SDS011;18309;43.658;1.312;2022-09-21T03:57:45;7.15;;;1.52;;
31728;SDS011;18309;43.658;1.312;2022-09-21T04:00:11;6.05;;;1.45;;
31728;SDS011;18309;43.658;1.312;2022-09-21T04:02:37;6.28;;;1.30;;
31728;SDS011;18309;43.658;1.312;2022-09-21T04:05:05;12.05;;;1.02;;
31728;SDS011;18309;43.658;1.312;2022-09-21T04:07:35;6.18;;;1.25;;
31728;SDS011;18309;43.658;1.312;2022-09-21T04:10:03;9.98;;;1.70;;
31728;SDS011;18309;43.658;1.312;2022-09-21T04:12:30;5.47;;;1.73;;
31728;SDS011;18309;43.658;1.312;2022-09-21T04:14:58;10.55;;;1.60;;
31728;SDS011;18309;43.658;1.312;2022-09-21T04:17:28;7.47;;;1.25;;
31728;SDS011;18309;43.658;1.312;2022-09-21T04:19:55;7.00;;;1.13;;
31728;SDS011;18309;43.658;1.312;2022-09-21T04:22:20;6.82;;;0.90;;
31728;SDS011;18309;43.658;1.312;2022-09-21T04:24:48;7.20;;;1.23;;
31728;SDS011;18309;43.658;1.312;2022-09-21T04:27:14;11.23;;;1.80;;
31728;SDS011;18309;43.658;1.312;2022-09-21T04:29:40;10.88;;;1.15;;
31728;SDS011;18309;43.658;1.312;2022-09-21T04:32:06;9.80;;;1.20;;
31728;SDS011;18309;43.658;1.312;2022-09-21T04:34:32;13.32;;;1.52;;
31728;SDS011;18309;43.658;1.312;2022-09-21T04:36:57;5.72;;;1.35;;
31728;SDS011;18309;43.658;1.312;2022-09-21T04:39:23;10.07;;;1.10;;
31728;SDS011;18309;43.658;1.312;2022-09-21T04:41:50;12.00;;;0.90;;
31728;SDS011;18309;43.658;1.312;2022-09-21T04:44:16;11.35;;;1.27;;
31728;SDS011;18309;43.658;1.312;2022-09-21T04:46:45;21.85;;;2.25;;
31728;SDS011;18309;43.658;1.312;2022-09-21T04:49:10;10.27;;;1.63;;
31728;SDS011;18309;43.658;1.312;2022-09-21T04:51:36;6.68;;;1.17;;
31728;SDS011;18309;43.658;1.312;2022-09-21T04:54:03;9.00;;;2.10;;
31728;SDS011;18309;43.658;1.312;2022-09-21T04:56:28;9.85;;;1.30;;
31728;SDS011;18309;43.658;1.312;2022-09-21T04:58:54;5.68;;;0.93;;
31728;SDS011;18309;43.658;1.312;2022-09-21T05:01:20;4.18;;;0.90;;
31728;SDS011;18309;43.658;1.312;2022-09-21T05:03:46;14.10;;;1.40;;
31728;SDS011;18309;43.658;1.312;2022-09-21T05:06:11;9.35;;;1.13;;
31728;SDS011;18309;43.658;1.312;2022-09-21T05:08:38;11.40;;;1.42;;
31728;SDS011;18309;43.658;1.312;2022-09-21T05:11:22;9.25;;;1.30;;
31728;SDS011;18309;43.658;1.312;2022-09-21T05:13:48;10.10;;;1.15;;
31728;SDS011;18309;43.658;1.312;2022-09-21T05:16:15;11.85;;;2.22;;
31728;SDS011;18309;43.658;1.312;2022-09-21T05:18:41;8.68;;;1.50;;
31728;SDS011;18309;43.658;1.312;2022-09-21T05:21:08;12.20;;;1.23;;
31728;SDS011;18309;43.658;1.312;2022-09-21T05:23:35;10.98;;;1.80;;
31728;SDS011;18309;43.658;1.312;2022-09-21T05:26:01;9.90;;;1.40;;
31728;SDS011;18309;43.658;1.312;2022-09-21T05:28:27;10.55;;;1.35;;
31728;SDS011;18309;43.658;1.312;2022-09-21T05:31:03;5.95;;;1.00;;
31728;SDS011;18309;43.658;1.312;2022-09-21T05:33:43;14.63;;;1.50;;
31728;SDS011;18309;43.658;1.312;2022-09-21T05:41:25;9.25;;;1.15;;
31728;SDS011;18309;43.658;1.312;2022-09-21T05:43:51;5.93;;;1.45;;
31728;SDS011;18309;43.658;1.312;2022-09-21T05:46:28;8.25;;;2.13;;
31728;SDS011;18309;43.658;1.312;2022-09-21T05:49:22;8.13;;;1.55;;
31728;SDS011;18309;43.658;1.312;2022-09-21T05:57:29;8.10;;;1.50;;
31728;SDS011;18309;43.658;1.312;2022-09-21T06:00:01;12.65;;;1.65;;
31728;SDS011;18309;43.658;1.312;2022-09-21T06:05:09;9.13;;;1.60;;
31728;SDS011;18309;43.658;1.312;2022-09-21T06:07:37;8.15;;;1.33;;
31728;SDS011;18309;43.658;1.312;2022-09-21T06:10:03;10.90;;;1.73;;
31728;SDS011;18309;43.658;1.312;2022-09-21T06:12:29;9.48;;;1.42;;
31728;SDS011;18309;43.658;1.312;2022-09-21T06:14:55;9.13;;;1.58;;
31728;SDS011;18309;43.658;1.312;2022-09-21T06:17:21;9.80;;;1.20;;
31728;SDS011;18309;43.658;1.312;2022-09-21T06:19:46;13.02;;;1.00;;
31728;SDS011;18309;43.658;1.312;2022-09-21T06:22:12;11.25;;;1.38;;
31728;SDS011;18309;43.658;1.312;2022-09-21T06:24:38;9.88;;;1.50;;
31728;SDS011;18309;43.658;1.312;2022-09-21T06:27:04;11.35;;;1.30;;
31728;SDS011;18309;43.658;1.312;2022-09-21T06:29:29;8.25;;;0.98;;
31728;SDS011;18309;43.658;1.312;2022-09-21T06:31:55;9.40;;;0.75;;
31728;SDS011;18309;43.658;1.312;2022-09-21T06:34:21;5.72;;;1.00;;
31728;SDS011;18309;43.658;1.312;2022-09-21T06:36:46;11.25;;;2.13;;
31728;SDS011;18309;43.658;1.312;2022-09-21T06:39:12;10.68;;;1.70;;
31728;SDS011;18309;43.658;1.312;2022-09-21T06:41:38;12.57;;;1.70;;
31728;SDS011;18309;43.658;1.312;2022-09-21T06:44:03;10.55;;;1.30;;
31728;SDS011;18309;43.658;1.312;2022-09-21T06:46:29;14.45;;;1.52;;
31728;SDS011;18309;43.658;1.312;2022-09-21T06:48:55;9.15;;;1.40;;
31728;SDS011;18309;43.658;1.312;2022-09-21T06:51:20;8.48;;;1.40;;
31728;SDS011;18309;43.658;1.312;2022-09-21T06:53:48;7.35;;;1.45;;
31728;SDS011;18309;43.658;1.312;2022-09-21T06:56:18;14.57;;;1.75;;
31728;SDS011;18309;43.658;1.312;2022-09-21T06:58:43;4.75;;;1.15;;
31728;SDS011;18309;43.658;1.312;2022-09-21T07:01:11;12.30;;;1.70;;
31728;SDS011;18309;43.658;1.312;2022-09-21T07:03:39;7.90;;;1.67;;
31728;SDS011;18309;43.658;1.312;2022-09-21T07:06:07;14.32;;;1.90;;
31728;SDS011;18309;43.658;1.312;2022-09-21T07:08:35;9.75;;;1.98;;
31728;SDS011;18309;43.658;1.312;2022-09-21T07:11:02;6.15;;;1.13;;
31728;SDS011;18309;43.658;1.312;2022-09-21T07:13:28;6.88;;;1.02;;
31728;SDS011;18309;43.658;1.312;2022-09-21T07:15:53;7.88;;;1.20;;
31728;SDS011;18309;43.658;1.312;2022-09-21T07:18:20;9.48;;;1.30;;
31728;SDS011;18309;43.658;1.312;2022-09-21T07:20:46;7.57;;;1.20;;
31728;SDS011;18309;43.658;1.312;2022-09-21T07:23:14;6.20;;;1.38;;
31728;SDS011;18309;43.658;1.312;2022-09-21T07:25:42;11.10;;;1.35;;
31728;SDS011;18309;43.658;1.312;2022-09-21T07:28:10;9.38;;;1.40;;
31728;SDS011;18309;43.658;1.312;2022-09-21T07:30:37;5.43;;;1.45;;
31728;SDS011;18309;43.658;1.312;2022-09-21T07:33:04;7.45;;;1.40;;
31728;SDS011;18309;43.658;1.312;2022-09-21T07:35:30;4.82;;;1.23;;
31728;SDS011;18309;43.658;1.312;2022-09-21T07:37:57;8.93;;;1.77;;
31728;SDS011;18309;43.658;1.312;2022-09-21T07:40:23;11.82;;;1.48;;
31728;SDS011;18309;43.658;1.312;2022-09-21T07:42:49;12.73;;;1.38;;
31728;SDS011;18309;43.658;1.312;2022-09-21T07:45:15;8.75;;;1.20;;
31728;SDS011;18309;43.658;1.312;2022-09-21T07:47:41;7.15;;;1.40;;
31728;SDS011;18309;43.658;1.312;2022-09-21T07:50:06;9.10;;;1.08;;
31728;SDS011;18309;43.658;1.312;2022-09-21T07:52:32;13.68;;;1.35;;
31728;SDS011;18309;43.658;1.312;2022-09-21T07:54:59;7.35;;;1.25;;
31728;SDS011;18309;43.658;1.312;2022-09-21T07:57:24;10.63;;;1.70;;
31728;SDS011;18309;43.658;1.312;2022-09-21T08:00:09;17.42;;;1.40;;
31728;SDS011;18309;43.658;1.312;2022-09-21T08:02:37;16.45;;;1.90;;
31728;SDS011;18309;43.658;1.312;2022-09-21T08:05:03;10.57;;;1.50;;
31728;SDS011;18309;43.658;1.312;2022-09-21T08:07:29;16.13;;;2.50;;
31728;SDS011;18309;43.658;1.312;2022-09-21T08:09:55;11.85;;;2.00;;
31728;SDS011;18309;43.658;1.312;2022-09-21T08:12:20;9.32;;;1.73;;
31728;SDS011;18309;43.658;1.312;2022-09-21T08:14:46;19.58;;;2.75;;
31728;SDS011;18309;43.658;1.312;2022-09-21T08:17:12;16.33;;;1.77;;
31728;SDS011;18309;43.658;1.312;2022-09-21T08:19:38;13.88;;;2.47;;
31728;SDS011;18309;43.658;1.312;2022-09-21T08:22:04;12.75;;;1.90;;
31728;SDS011;18309;43.658;1.312;2022-09-21T08:24:31;17.80;;;2.70;;
31728;SDS011;18309;43.658;1.312;2022-09-21T08:26:57;14.02;;;2.55;;
31728;SDS011;18309;43.658;1.312;2022-09-21T08:29:23;13.27;;;2.33;;
31728;SDS011;18309;43.658;1.312;2022-09-21T08:31:50;14.15;;;1.83;;
31728;SDS011;18309;43.658;1.312;2022-09-21T08:34:17;8.23;;;1.30;;
31728;SDS011;18309;43.658;1.312;2022-09-21T08:36:43;9.50;;;1.90;;
31728;SDS011;18309;43.658;1.312;2022-09-21T08:39:10;9.93;;;1.45;;
31728;SDS011;18309;43.658;1.312;2022-09-21T08:44:24;12.27;;;2.22;;
31728;SDS011;18309;43.658;1.312;2022-09-21T08:49:37;10.98;;;1.33;;
31728;SDS011;18309;43.658;1.312;2022-09-21T08:52:06;9.38;;;1.70;;
31728;SDS011;18309;43.658;1.312;2022-09-21T08:54:45;13.95;;;2.20;;
31728;SDS011;18309;43.658;1.312;2022-09-21T08:57:18;12.52;;;1.30;;
31728;SDS011;18309;43.658;1.312;2022-09-21T08:59:47;17.48;;;2.10;;
31728;SDS011;18309;43.658;1.312;2022-09-21T09:15:55;15.55;;;2.13;;
31728;SDS011;18309;43.658;1.312;2022-09-21T09:21:52;7.97;;;1.50;;
31728;SDS011;18309;43.658;1.312;2022-09-21T09:24:35;8.43;;;1.35;;
31728;SDS011;18309;43.658;1.312;2022-09-21T09:27:33;10.02;;;1.08;;
31728;SDS011;18309;43.658;1.312;2022-09-21T09:30:16;8.85;;;1.38;;
31728;SDS011;18309;43.658;1.312;2022-09-21T09:37:50;7.03;;;1.25;;
31728;SDS011;18309;43.658;1.312;2022-09-21T09:40:40;9.23;;;1.30;;
31728;SDS011;18309;43.658;1.312;2022-09-21T09:54:04;8.27;;;1.88;;
31728;SDS011;18309;43.658;1.312;2022-09-21T09:56:37;6.13;;;1.00;;
31728;SDS011;18309;43.658;1.312;2022-09-21T09:59:02;7.65;;;1.27;;
31728;SDS011;18309;43.658;1.312;2022-09-21T10:01:44;5.40;;;1.10;;
31728;SDS011;18309;43.658;1.312;2022-09-21T10:04:22;10.68;;;1.30;;
31728;SDS011;18309;43.658;1.312;2022-09-21T10:06:47;4.97;;;0.90;;
31728;SDS011;18309;43.658;1.312;2022-09-21T10:09:22;7.22;;;1.50;;
31728;SDS011;18309;43.658;1.312;2022-09-21T10:11:48;5.82;;;1.25;;
31728;SDS011;18309;43.658;1.312;2022-09-21T10:14:17;11.57;;;1.60;;
31728;SDS011;18309;43.658;1.312;2022-09-21T10:16:45;6.75;;;1.13;;
31728;SDS011;18309;43.658;1.312;2022-09-21T10:19:24;16.13;;;2.65;;
31728;SDS011;18309;43.658;1.312;2022-09-21T10:21:57;11.07;;;1.88;;
31728;SDS011;18309;43.658;1.312;2022-09-21T10:24:30;14.77;;;2.13;;
31728;SDS011;18309;43.658;1.312;2022-09-21T10:27:14;12.95;;;1.58;;
31728;SDS011;18309;43.658;1.312;2022-09-21T10:29:43;16.25;;;1.67;;
31728;SDS011;18309;43.658;1.312;2022-09-21T10:34:36;8.43;;;1.35;;
31728;SDS011;18309;43.658;1.312;2022-09-21T10:39:52;13.68;;;0.98;;
31728;SDS011;18309;43.658;1.312;2022-09-21T10:42:18;9.75;;;1.15;;
31728;SDS011;18309;43.658;1.312;2022-09-21T10:44:45;10.30;;;0.95;;
31728;SDS011;18309;43.658;1.312;2022-09-21T10:47:26;7.38;;;1.40;;
31728;SDS011;18309;43.658;1.312;2022-09-21T10:50:03;11.13;;;1.00;;
31728;SDS011;18309;43.658;1.312;2022-09-21T10:52:44;9.63;;;1.05;;
31728;SDS011;18309;43.658;1.312;2022-09-21T10:55:17;7.07;;;1.00;;
31728;SDS011;18309;43.658;1.312;2022-09-21T10:57:46;10.20;;;1.10;;
31728;SDS011;18309;43.658;1.312;2022-09-21T11:02:48;5.15;;;1.05;;
31728;SDS011;18309;43.658;1.312;2022-09-21T11:05:36;5.63;;;1.13;;
31728;SDS011;18309;43.658;1.312;2022-09-21T11:13:36;8.05;;;1.25;;
31728;SDS011;18309;43.658;1.312;2022-09-21T11:26:45;10.98;;;1.40;;
31728;SDS011;18309;43.658;1.312;2022-09-21T11:29:23;10.57;;;1.20;;
31728;SDS011;18309;43.658;1.312;2022-09-21T11:46:43;4.35;;;1.08;;
31728;SDS011;18309;43.658;1.312;2022-09-21T12:02:34;7.95;;;1.20;;
31728;SDS011;18309;43.658;1.312;2022-09-21T12:05:23;4.25;;;1.08;;
31728;SDS011;18309;43.658;1.312;2022-09-21T12:22:06;5.50;;;0.93;;
31728;SDS011;18309;43.658;1.312;2022-09-21T12:27:37;5.35;;;0.77;;
31728;SDS011;18309;43.658;1.312;2022-09-21T12:30:15;6.93;;;0.80;;
31728;SDS011;18309;43.658;1.312;2022-09-21T12:35:41;2.97;;;0.60;;
31728;SDS011;18309;43.658;1.312;2022-09-21T12:38:34;3.78;;;0.82;;
31728;SDS011;18309;43.658;1.312;2022-09-21T12:46:17;7.60;;;0.95;;
31728;SDS011;18309;43.658;1.312;2022-09-21T12:48:55;3.28;;;1.15;;
31728;SDS011;18309;43.658;1.312;2022-09-21T12:51:33;2.50;;;0.73;;
31728;SDS011;18309;43.658;1.312;2022-09-21T12:54:13;3.55;;;0.73;;
31728;SDS011;18309;43.658;1.312;2022-09-21T13:02:35;3.80;;;0.85;;
31728;SDS011;18309;43.658;1.312;2022-09-21T13:05:14;4.93;;;0.65;;
31728;SDS011;18309;43.658;1.312;2022-09-21T13:13:07;7.60;;;1.00;;
31728;SDS011;18309;43.658;1.312;2022-09-21T13:15:44;5.20;;;1.15;;
31728;SDS011;18309;43.658;1.312;2022-09-21T13:20:47;7.90;;;1.05;;
31728;SDS011;18309;43.658;1.312;2022-09-21T13:23:26;9.57;;;0.93;;
31728;SDS011;18309;43.658;1.312;2022-09-21T13:26:06;6.93;;;0.90;;
31728;SDS011;18309;43.658;1.312;2022-09-21T13:28:41;3.08;;;0.93;;
31728;SDS011;18309;43.658;1.312;2022-09-21T13:31:39;9.23;;;0.85;;
31728;SDS011;18309;43.658;1.312;2022-09-21T13:45:00;8.23;;;1.20;;
31728;SDS011;18309;43.658;1.312;2022-09-21T13:47:49;10.07;;;1.30;;
31728;SDS011;18309;43.658;1.312;2022-09-21T13:52:56;10.70;;;1.27;;
31728;SDS011;18309;43.658;1.312;2022-09-21T13:58:04;10.80;;;1.73;;
31728;SDS011;18309;43.658;1.312;2022-09-21T14:05:53;3.88;;;0.80;;
31728;SDS011;18309;43.658;1.312;2022-09-21T14:08:29;3.33;;;1.15;;
31728;SDS011;18309;43.658;1.312;2022-09-21T14:10:59;6.20;;;1.05;;
31728;SDS011;18309;43.658;1.312;2022-09-21T14:13:38;11.40;;;1.00;;
31728;SDS011;18309;43.658;1.312;2022-09-21T14:18:58;7.22;;;0.95;;
31728;SDS011;18309;43.658;1.312;2022-09-21T14:21:25;5.90;;;0.93;;
31728;SDS011;18309;43.658;1.312;2022-09-21T14:24:08;5.32;;;1.10;;
31728;SDS011;18309;43.658;1.312;2022-09-21T14:26:53;4.95;;;1.00;;
31728;SDS011;18309;43.658;1.312;2022-09-21T14:32:27;2.17;;;0.75;;
31728;SDS011;18309;43.658;1.312;2022-09-21T14:35:01;7.45;;;0.82;;
31728;SDS011;18309;43.658;1.312;2022-09-21T14:37:39;2.92;;;0.65;;
31728;SDS011;18309;43.658;1.312;2022-09-21T14:40:20;8.90;;;1.17;;
31728;SDS011;18309;43.658;1.312;2022-09-21T14:42:49;7.00;;;1.08;;
31728;SDS011;18309;43.658;1.312;2022-09-21T14:45:16;8.98;;;0.77;;
31728;SDS011;18309;43.658;1.312;2022-09-21T14:47:51;7.70;;;1.67;;
31728;SDS011;18309;43.658;1.312;2022-09-21T14:50:34;3.65;;;0.90;;
31728;SDS011;18309;43.658;1.312;2022-09-21T15:04:12;3.30;;;0.88;;
31728;SDS011;18309;43.658;1.312;2022-09-21T15:18:38;8.90;;;1.15;;
31728;SDS011;18309;43.658;1.312;2022-09-21T15:21:17;4.18;;;0.70;;
31728;SDS011;18309;43.658;1.312;2022-09-21T15:23:48;3.70;;;0.77;;
31728;SDS011;18309;43.658;1.312;2022-09-21T15:26:16;6.40;;;1.13;;
31728;SDS011;18309;43.658;1.312;2022-09-21T15:28:53;3.88;;;1.20;;
31728;SDS011;18309;43.658;1.312;2022-09-21T15:31:21;8.15;;;0.80;;
31728;SDS011;18309;43.658;1.312;2022-09-21T15:33:47;4.35;;;0.70;;
31728;SDS011;18309;43.658;1.312;2022-09-21T15:36:21;5.63;;;0.80;;
31728;SDS011;18309;43.658;1.312;2022-09-21T15:38:49;3.50;;;1.30;;
31728;SDS011;18309;43.658;1.312;2022-09-21T15:44:30;5.43;;;1.80;;
31728;SDS011;18309;43.658;1.312;2022-09-21T15:46:56;6.55;;;0.95;;
31728;SDS011;18309;43.658;1.312;2022-09-21T15:49:24;8.38;;;0.80;;
31728;SDS011;18309;43.658;1.312;2022-09-21T15:52:02;7.18;;;1.02;;
31728;SDS011;18309;43.658;1.312;2022-09-21T15:54:47;5.10;;;1.38;;
31728;SDS011;18309;43.658;1.312;2022-09-21T15:57:35;6.35;;;1.15;;
31728;SDS011;18309;43.658;1.312;2022-09-21T16:00:06;7.68;;;1.05;;
31728;SDS011;18309;43.658;1.312;2022-09-21T16:02:50;8.55;;;1.42;;
31728;SDS011;18309;43.658;1.312;2022-09-21T16:05:40;5.32;;;1.10;;
31728;SDS011;18309;43.658;1.312;2022-09-21T16:08:33;7.65;;;1.10;;
31728;SDS011;18309;43.658;1.312;2022-09-21T16:13:36;4.50;;;0.98;;
31728;SDS011;18309;43.658;1.312;2022-09-21T16:16:21;11.77;;;1.27;;
31728;SDS011;18309;43.658;1.312;2022-09-21T16:18:48;9.50;;;1.27;;
31728;SDS011;18309;43.658;1.312;2022-09-21T16:21:22;7.00;;;1.00;;
31728;SDS011;18309;43.658;1.312;2022-09-21T16:23:52;3.67;;;0.90;;
31728;SDS011;18309;43.658;1.312;2022-09-21T16:26:32;20.30;;;1.88;;
31728;SDS011;18309;43.658;1.312;2022-09-21T16:31:40;8.73;;;1.13;;
31728;SDS011;18309;43.658;1.312;2022-09-21T16:34:17;4.28;;;0.85;;
31728;SDS011;18309;43.658;1.312;2022-09-21T16:36:46;2.80;;;0.90;;
31728;SDS011;18309;43.658;1.312;2022-09-21T16:39:15;3.88;;;0.80;;
31728;SDS011;18309;43.658;1.312;2022-09-21T16:41:42;4.15;;;1.20;;
31728;SDS011;18309;43.658;1.312;2022-09-21T16:44:15;9.27;;;1.17;;
31728;SDS011;18309;43.658;1.312;2022-09-21T16:46:50;5.05;;;1.10;;
31728;SDS011;18309;43.658;1.312;2022-09-21T16:49:21;3.53;;;1.00;;
31728;SDS011;18309;43.658;1.312;2022-09-21T16:51:50;6.28;;;1.25;;
31728;SDS011;18309;43.658;1.312;2022-09-21T16:54:17;5.22;;;1.27;;
31728;SDS011;18309;43.658;1.312;2022-09-21T16:56:44;5.63;;;1.65;;
31728;SDS011;18309;43.658;1.312;2022-09-21T16:59:14;6.13;;;1.10;;
31728;SDS011;18309;43.658;1.312;2022-09-21T17:01:50;15.32;;;1.20;;
31728;SDS011;18309;43.658;1.312;2022-09-21T17:04:20;10.02;;;1.27;;
31728;SDS011;18309;43.658;1.312;2022-09-21T17:06:50;9.35;;;1.00;;
31728;SDS011;18309;43.658;1.312;2022-09-21T17:11:45;1.85;;;0.85;;
31728;SDS011;18309;43.658;1.312;2022-09-21T17:14:12;4.85;;;1.10;;
31728;SDS011;18309;43.658;1.312;2022-09-21T17:16:40;8.85;;;1.05;;
31728;SDS011;18309;43.658;1.312;2022-09-21T17:19:14;3.13;;;0.95;;
31728;SDS011;18309;43.658;1.312;2022-09-21T17:21:40;5.50;;;0.98;;
31728;SDS011;18309;43.658;1.312;2022-09-21T17:24:06;5.43;;;1.48;;
31728;SDS011;18309;43.658;1.312;2022-09-21T17:26:32;8.23;;;1.30;;
31728;SDS011;18309;43.658;1.312;2022-09-21T17:28:58;8.23;;;1.35;;
31728;SDS011;18309;43.658;1.312;2022-09-21T17:31:27;2.67;;;0.95;;
31728;SDS011;18309;43.658;1.312;2022-09-21T17:33:53;5.50;;;1.15;;
31728;SDS011;18309;43.658;1.312;2022-09-21T17:36:19;4.18;;;1.10;;
31728;SDS011;18309;43.658;1.312;2022-09-21T17:38:45;7.13;;;2.60;;
31728;SDS011;18309;43.658;1.312;2022-09-21T17:41:15;7.20;;;2.22;;
31728;SDS011;18309;43.658;1.312;2022-09-21T17:49:11;51.92;;;27.00;;
31728;SDS011;18309;43.658;1.312;2022-09-21T17:51:37;26.67;;;15.70;;
31728;SDS011;18309;43.658;1.312;2022-09-21T17:54:21;30.42;;;14.18;;
31728;SDS011;18309;43.658;1.312;2022-09-21T18:01:53;12.52;;;6.35;;
31728;SDS011;18309;43.658;1.312;2022-09-21T18:04:23;12.10;;;3.00;;
31728;SDS011;18309;43.658;1.312;2022-09-21T18:06:51;5.90;;;1.88;;
31728;SDS011;18309;43.658;1.312;2022-09-21T18:09:17;11.65;;;2.03;;
31728;SDS011;18309;43.658;1.312;2022-09-21T18:22:57;11.38;;;2.60;;
31728;SDS011;18309;43.658;1.312;2022-09-21T18:25:36;15.57;;;2.95;;
31728;SDS011;18309;43.658;1.312;2022-09-21T18:28:11;11.88;;;2.65;;
31728;SDS011;18309;43.658;1.312;2022-09-21T18:30:49;13.00;;;2.55;;
31728;SDS011;18309;43.658;1.312;2022-09-21T18:33:39;7.00;;;1.55;;
31728;SDS011;18309;43.658;1.312;2022-09-21T18:36:25;9.85;;;1.67;;
31728;SDS011;18309;43.658;1.312;2022-09-21T18:41:47;16.85;;;1.92;;
31728;SDS011;18309;43.658;1.312;2022-09-21T18:44:38;9.57;;;1.63;;
31728;SDS011;18309;43.658;1.312;2022-09-21T18:55:27;30.63;;;2.25;;
31728;SDS011;18309;43.658;1.312;2022-09-21T18:57:57;13.13;;;1.73;;
31728;SDS011;18309;43.658;1.312;2022-09-21T19:00:24;8.95;;;1.73;;
31728;SDS011;18309;43.658;1.312;2022-09-21T19:02:59;15.63;;;2.30;;
31728;SDS011;18309;43.658;1.312;2022-09-21T19:05:26;13.25;;;2.05;;
31728;SDS011;18309;43.658;1.312;2022-09-21T19:10:52;13.18;;;1.83;;
31728;SDS011;18309;43.658;1.312;2022-09-21T19:16:34;10.68;;;1.10;;
31728;SDS011;18309;43.658;1.312;2022-09-21T19:22:14;15.05;;;2.03;;
31728;SDS011;18309;43.658;1.312;2022-09-21T19:32:43;14.02;;;2.42;;
31728;SDS011;18309;43.658;1.312;2022-09-21T19:35:28;7.70;;;1.70;;
31728;SDS011;18309;43.658;1.312;2022-09-21T19:37:57;8.73;;;2.50;;
31728;SDS011;18309;43.658;1.312;2022-09-21T19:40:29;9.02;;;2.20;;
31728;SDS011;18309;43.658;1.312;2022-09-21T19:48:28;12.20;;;2.50;;
31728;SDS011;18309;43.658;1.312;2022-09-21T19:51:30;16.83;;;3.92;;
31728;SDS011;18309;43.658;1.312;2022-09-21T19:54:13;14.13;;;3.63;;
31728;SDS011;18309;43.658;1.312;2022-09-21T19:57:03;16.25;;;2.53;;
31728;SDS011;18309;43.658;1.312;2022-09-21T19:59:59;13.95;;;2.05;;